TimeEST,TemperatureF,Dew PointF,Humidity,Sea Level PressureIn,VisibilityMPH,Wind Direction,Wind SpeedMPH,Gust SpeedMPH,PrecipitationIn,Events,Conditions,WindDirDegrees,DateUTC
12:53 AM,46.9,39.9,77,30.33,10.0,Calm,Calm,-,N/A,,Clear,0,2012-11-19 05:53:00
1:53 AM,46.0,39.9,79,30.32,10.0,NNE,3.5,-,N/A,,Clear,20,2012-11-19 06:53:00
2:53 AM,48.0,41.0,77,30.30,10.0,Variable,3.5,-,N/A,,Clear,0,2012-11-19 07:53:00
3:53 AM,48.0,39.9,74,30.30,10.0,Calm,Calm,-,N/A,,Clear,0,2012-11-19 08:53:00
4:53 AM,46.9,39.9,77,30.30,10.0,Calm,Calm,-,N/A,,Clear,0,2012-11-19 09:53:00
5:53 AM,42.1,37.9,85,30.30,10.0,Calm,Calm,-,N/A,,Clear,0,2012-11-19 10:53:00
6:53 AM,44.1,39.0,82,30.30,10.0,NNE,3.5,-,N/A,,Clear,30,2012-11-19 11:53:00
7:53 AM,46.0,39.9,79,30.31,10.0,Calm,Calm,-,N/A,,Scattered Clouds,0,2012-11-19 12:53:00
8:00 AM,46.4,41.0,81,30.31,10.0,Calm,Calm,-,N/A,,Mostly Cloudy,0,2012-11-19 13:00:00
8:53 AM,48.0,42.1,80,30.33,10.0,North,3.5,-,N/A,,Overcast,10,2012-11-19 13:53:00
9:53 AM,53.1,42.1,66,30.32,10.0,Calm,Calm,-,N/A,,Overcast,0,2012-11-19 14:53:00
10:53 AM,55.9,45.0,67,30.31,10.0,NNE,9.2,-,N/A,,Overcast,30,2012-11-19 15:53:00
11:53 AM,57.9,48.0,70,30.29,10.0,Variable,4.6,-,N/A,,Overcast,0,2012-11-19 16:53:00
12:53 PM,57.9,48.9,72,30.27,8.0,NNW,5.8,-,N/A,,Overcast,340,2012-11-19 17:53:00
1:40 PM,57.2,50.0,77,30.24,10.0,WNW,4.6,-,0.00,,Overcast,290,2012-11-19 18:40:00
1:53 PM,59.0,48.9,69,30.25,10.0,North,5.8,-,0.00,,Overcast,350,2012-11-19 18:53:00
2:53 PM,60.1,48.9,67,30.22,10.0,North,5.8,-,N/A,,Overcast,360,2012-11-19 19:53:00
3:00 PM,60.8,48.2,63,30.22,10.0,NNE,4.6,-,N/A,,Overcast,30,2012-11-19 20:00:00
3:53 PM,60.1,48.9,67,30.22,10.0,NE,5.8,-,N/A,,Overcast,50,2012-11-19 20:53:00
4:53 PM,59.0,48.9,69,30.23,10.0,North,4.6,-,N/A,,Overcast,350,2012-11-19 21:53:00
5:53 PM,59.0,48.9,69,30.22,10.0,Calm,Calm,-,N/A,,Overcast,0,2012-11-19 22:53:00
6:53 PM,57.9,50.0,75,30.21,10.0,Calm,Calm,-,N/A,,Overcast,0,2012-11-19 23:53:00
7:53 PM,57.9,50.0,75,30.21,10.0,Calm,Calm,-,N/A,,Overcast,0,2012-11-20 00:53:00
8:53 PM,57.0,51.1,81,30.21,10.0,Calm,Calm,-,N/A,,Overcast,0,2012-11-20 01:53:00
9:53 PM,55.4,51.8,88,30.20,10.0,Calm,Calm,-,N/A,,Overcast,0,2012-11-20 02:53:00
10:53 PM,55.9,51.1,84,30.20,10.0,Calm,Calm,-,N/A,,Overcast,0,2012-11-20 03:53:00
11:53 PM,55.0,51.1,86,30.19,10.0,Calm,Calm,-,N/A,,Overcast,0,2012-11-20 04:53:00